sensor_id;sensor_type;location;lat;lon;timestamp;pressure;altitude;pressure_sealevel;temperature;humidity
42771;BME280;28426;42.872;25.314;2023-12-28T00:01:32;98092.09;;;-0.38;91.08
42771;BME280;28426;42.872;25.314;2023-12-28T00:04:03;98087.22;;;-0.45;91.18
42771;BME280;28426;42.872;25.314;2023-12-28T00:06:36;98088.50;;;-0.52;90.98
42771;BME280;28426;42.872;25.314;2023-12-28T00:09:08;98096.47;;;-0.54;92.28
42771;BME280;28426;42.872;25.314;2023-12-28T00:11:41;98088.69;;;-0.55;92.02
42771;BME280;28426;42.872;25.314;2023-12-28T00:14:15;98092.25;;;-0.56;92.30
42771;BME280;28426;42.872;25.314;2023-12-28T00:16:48;98094.78;;;-0.55;92.95
42771;BME280;28426;42.872;25.314;2023-12-28T00:19:21;98101.53;;;-0.50;93.21
42771;BME280;28426;42.872;25.314;2023-12-28T00:21:53;98086.38;;;-0.45;93.16
42771;BME280;28426;42.872;25.314;2023-12-28T00:24:24;98093.13;;;-0.41;93.25
42771;BME280;28426;42.872;25.314;2023-12-28T00:26:55;98097.34;;;-0.38;93.00
42771;BME280;28426;42.872;25.314;2023-12-28T00:29:29;98090.34;;;-0.38;92.73
42771;BME280;28426;42.872;25.314;2023-12-28T00:32:01;98102.59;;;-0.38;92.69
42771;BME280;28426;42.872;25.314;2023-12-28T00:34:32;98097.50;;;-0.42;92.65
42771;BME280;28426;42.872;25.314;2023-12-28T00:37:05;98098.63;;;-0.46;92.32
42771;BME280;28426;42.872;25.314;2023-12-28T00:39:37;98106.69;;;-0.49;92.55
42771;BME280;28426;42.872;25.314;2023-12-28T00:42:10;98100.88;;;-0.54;92.46
42771;BME280;28426;42.872;25.314;2023-12-28T00:44:43;98105.44;;;-0.58;92.95
42771;BME280;28426;42.872;25.314;2023-12-28T00:47:14;98096.22;;;-0.49;94.74
42771;BME280;28426;42.872;25.314;2023-12-28T00:49:45;98103.53;;;-0.40;94.68
42771;BME280;28426;42.872;25.314;2023-12-28T00:52:16;98108.22;;;-0.30;94.21
42771;BME280;28426;42.872;25.314;2023-12-28T00:54:47;98105.91;;;-0.20;93.71
42771;BME280;28426;42.872;25.314;2023-12-28T00:57:18;98113.31;;;-0.12;93.32
42771;BME280;28426;42.872;25.314;2023-12-28T00:59:52;98125.00;;;-0.04;92.89
42771;BME280;28426;42.872;25.314;2023-12-28T01:02:22;98118.56;;;0.02;92.06
42771;BME280;28426;42.872;25.314;2023-12-28T01:04:54;98108.53;;;0.09;91.53
42771;BME280;28426;42.872;25.314;2023-12-28T01:07:26;98116.00;;;0.15;91.47
42771;BME280;28426;42.872;25.314;2023-12-28T01:09:57;98112.19;;;0.21;90.77
42771;BME280;28426;42.872;25.314;2023-12-28T01:12:30;98109.38;;;0.24;90.44
42771;BME280;28426;42.872;25.314;2023-12-28T01:15:05;98095.13;;;0.28;90.02
42771;BME280;28426;42.872;25.314;2023-12-28T01:17:36;98100.16;;;0.31;89.64
42771;BME280;28426;42.872;25.314;2023-12-28T01:20:08;98093.88;;;0.34;89.37
42771;BME280;28426;42.872;25.314;2023-12-28T01:22:39;98098.22;;;0.35;88.55
42771;BME280;28426;42.872;25.314;2023-12-28T01:25:10;98106.19;;;0.33;88.15
42771;BME280;28426;42.872;25.314;2023-12-28T01:27:41;98104.50;;;0.32;88.13
42771;BME280;28426;42.872;25.314;2023-12-28T01:30:15;98113.28;;;0.31;87.60
42771;BME280;28426;42.872;25.314;2023-12-28T01:32:48;98115.91;;;0.31;87.65
42771;BME280;28426;42.872;25.314;2023-12-28T01:35:20;98115.91;;;0.31;87.55
42771;BME280;28426;42.872;25.314;2023-12-28T01:37:52;98107.94;;;0.33;87.65
42771;BME280;28426;42.872;25.314;2023-12-28T01:40:25;98115.81;;;0.33;87.64
42771;BME280;28426;42.872;25.314;2023-12-28T01:42:56;98117.50;;;0.34;87.55
42771;BME280;28426;42.872;25.314;2023-12-28T01:45:32;98110.47;;;0.34;87.37
42771;BME280;28426;42.872;25.314;2023-12-28T01:48:05;98109.53;;;0.35;86.90
42771;BME280;28426;42.872;25.314;2023-12-28T01:50:37;98104.28;;;0.35;86.76
42771;BME280;28426;42.872;25.314;2023-12-28T01:53:09;98101.75;;;0.34;86.41
42771;BME280;28426;42.872;25.314;2023-12-28T01:55:42;98102.78;;;0.31;86.74
42771;BME280;28426;42.872;25.314;2023-12-28T01:58:15;98097.75;;;0.28;86.44
42771;BME280;28426;42.872;25.314;2023-12-28T02:00:50;98114.41;;;0.27;86.60
42771;BME280;28426;42.872;25.314;2023-12-28T02:03:22;98102.22;;;0.26;86.67
42771;BME280;28426;42.872;25.314;2023-12-28T02:05:55;98115.56;;;0.23;86.53
42771;BME280;28426;42.872;25.314;2023-12-28T02:08:29;98099.06;;;0.21;86.46
42771;BME280;28426;42.872;25.314;2023-12-28T02:11:01;98111.44;;;0.19;86.66
42771;BME280;28426;42.872;25.314;2023-12-28T02:13:36;98106.28;;;0.17;86.29
42771;BME280;28426;42.872;25.314;2023-12-28T02:16:15;98110.69;;;0.17;86.18
42771;BME280;28426;42.872;25.314;2023-12-28T02:18:51;98115.94;;;0.17;86.33
42771;BME280;28426;42.872;25.314;2023-12-28T02:21:24;98101.22;;;0.14;86.32
42771;BME280;28426;42.872;25.314;2023-12-28T02:23:57;98102.06;;;0.15;86.37
42771;BME280;28426;42.872;25.314;2023-12-28T02:26:32;98102.06;;;0.15;86.42
42771;BME280;28426;42.872;25.314;2023-12-28T02:29:04;98102.06;;;0.15;86.63
42771;BME280;28426;42.872;25.314;2023-12-28T02:31:42;98096.91;;;0.13;86.47
42771;BME280;28426;42.872;25.314;2023-12-28T02:34:21;98089.69;;;0.17;86.72
42771;BME280;28426;42.872;25.314;2023-12-28T02:36:59;98091.34;;;0.18;86.35
42771;BME280;28426;42.872;25.314;2023-12-28T02:39:33;98085.28;;;0.17;86.52
42771;BME280;28426;42.872;25.314;2023-12-28T02:42:09;98072.25;;;0.16;86.45
42771;BME280;28426;42.872;25.314;2023-12-28T02:44:39;98065.31;;;0.15;86.03
42771;BME280;28426;42.872;25.314;2023-12-28T02:47:11;98065.31;;;0.15;85.96
42771;BME280;28426;42.872;25.314;2023-12-28T02:49:43;98061.00;;;0.13;85.96
42771;BME280;28426;42.872;25.314;2023-12-28T02:52:16;98069.72;;;0.14;86.00
42771;BME280;28426;42.872;25.314;2023-12-28T02:54:48;98059.41;;;0.11;85.61
42771;BME280;28426;42.872;25.314;2023-12-28T02:57:26;98056.91;;;0.09;85.34
42771;BME280;28426;42.872;25.314;2023-12-28T02:59:58;98047.41;;;0.07;85.47
42771;BME280;28426;42.872;25.314;2023-12-28T03:02:33;98050.88;;;0.07;85.53
42771;BME280;28426;42.872;25.314;2023-12-28T03:05:06;98043.97;;;0.06;85.52
42771;BME280;28426;42.872;25.314;2023-12-28T03:07:39;98044.78;;;0.07;85.56
42771;BME280;28426;42.872;25.314;2023-12-28T03:10:11;98044.91;;;0.05;85.85
42771;BME280;28426;42.872;25.314;2023-12-28T03:12:47;98050.16;;;0.05;85.91
42771;BME280;28426;42.872;25.314;2023-12-28T03:15:19;98047.53;;;0.05;85.80
42771;BME280;28426;42.872;25.314;2023-12-28T03:17:50;98044.91;;;0.05;85.74
42771;BME280;28426;42.872;25.314;2023-12-28T03:20:21;98041.34;;;0.06;85.69
42771;BME280;28426;42.872;25.314;2023-12-28T03:22:52;98029.16;;;0.05;85.98
42771;BME280;28426;42.872;25.314;2023-12-28T03:25:23;98036.91;;;0.07;85.74
42771;BME280;28426;42.872;25.314;2023-12-28T03:27:56;98029.16;;;0.05;86.13
42771;BME280;28426;42.872;25.314;2023-12-28T03:30:28;98032.69;;;0.04;85.70
42771;BME280;28426;42.872;25.314;2023-12-28T03:32:59;98027.66;;;0.01;86.01
42771;BME280;28426;42.872;25.314;2023-12-28T03:35:30;98031.31;;;-0.02;85.75
42771;BME280;28426;42.872;25.314;2023-12-28T03:38:01;98024.25;;;-0.01;85.72
42771;BME280;28426;42.872;25.314;2023-12-28T03:40:32;98030.47;;;-0.02;86.07
42771;BME280;28426;42.872;25.314;2023-12-28T03:43:06;98037.38;;;-0.01;85.52
42771;BME280;28426;42.872;25.314;2023-12-28T03:45:37;98042.72;;;-0.03;85.78
42771;BME280;28426;42.872;25.314;2023-12-28T03:48:08;98045.47;;;-0.04;85.78
42771;BME280;28426;42.872;25.314;2023-12-28T03:50:39;98035.81;;;-0.04;85.31
42771;BME280;28426;42.872;25.314;2023-12-28T03:53:10;98032.44;;;-0.06;85.51
42771;BME280;28426;42.872;25.314;2023-12-28T03:55:41;98036.84;;;-0.06;85.80
42771;BME280;28426;42.872;25.314;2023-12-28T03:58:14;98043.88;;;-0.07;85.41
42771;BME280;28426;42.872;25.314;2023-12-28T04:00:45;98045.66;;;-0.07;85.61
42771;BME280;28426;42.872;25.314;2023-12-28T04:03:16;98047.50;;;-0.09;85.59
42771;BME280;28426;42.872;25.314;2023-12-28T04:05:47;98035.34;;;-0.10;85.65
42771;BME280;28426;42.872;25.314;2023-12-28T04:08:18;98034.50;;;-0.11;85.20
42771;BME280;28426;42.872;25.314;2023-12-28T04:10:49;98034.50;;;-0.11;85.44
42771;BME280;28426;42.872;25.314;2023-12-28T04:13:22;98041.63;;;-0.13;85.16
42771;BME280;28426;42.872;25.314;2023-12-28T04:15:53;98043.41;;;-0.14;85.04
42771;BME280;28426;42.872;25.314;2023-12-28T04:18:23;98031.31;;;-0.16;85.07
42771;BME280;28426;42.872;25.314;2023-12-28T04:20:54;98034.97;;;-0.19;84.76
42771;BME280;28426;42.872;25.314;2023-12-28T04:23:25;98039.56;;;-0.22;84.15
42771;BME280;28426;42.872;25.314;2023-12-28T04:25:58;98037.09;;;-0.25;83.90
42771;BME280;28426;42.872;25.314;2023-12-28T04:28:31;98033.94;;;-0.31;83.65
42771;BME280;28426;42.872;25.314;2023-12-28T04:31:04;98030.00;;;-0.38;83.39
42771;BME280;28426;42.872;25.314;2023-12-28T04:33:35;98042.28;;;-0.38;83.64
42771;BME280;28426;42.872;25.314;2023-12-28T04:36:08;98045.84;;;-0.40;83.62
42771;BME280;28426;42.872;25.314;2023-12-28T04:38:39;98053.78;;;-0.41;83.68
42771;BME280;28426;42.872;25.314;2023-12-28T04:41:11;98058.38;;;-0.45;83.50
42771;BME280;28426;42.872;25.314;2023-12-28T04:43:44;98052.28;;;-0.45;83.71
42771;BME280;28426;42.872;25.314;2023-12-28T04:46:16;98053.22;;;-0.46;83.59
42771;BME280;28426;42.872;25.314;2023-12-28T04:48:48;98056.88;;;-0.49;83.63
42771;BME280;28426;42.872;25.314;2023-12-28T04:51:20;98063.03;;;-0.50;83.38
42771;BME280;28426;42.872;25.314;2023-12-28T04:53:52;98058.72;;;-0.51;83.71
42771;BME280;28426;42.872;25.314;2023-12-28T04:56:23;98050.13;;;-0.53;83.22
42771;BME280;28426;42.872;25.314;2023-12-28T04:58:57;98059.75;;;-0.54;83.41
42771;BME280;28426;42.872;25.314;2023-12-28T05:01:28;98060.78;;;-0.56;83.24
42771;BME280;28426;42.872;25.314;2023-12-28T05:04:01;98050.47;;;-0.59;83.00
42771;BME280;28426;42.872;25.314;2023-12-28T05:06:32;98049.81;;;-0.63;82.71
42771;BME280;28426;42.872;25.314;2023-12-28T05:09:03;98058.72;;;-0.66;82.95
42771;BME280;28426;42.872;25.314;2023-12-28T05:11:34;98057.13;;;-0.68;82.71
42771;BME280;28426;42.872;25.314;2023-12-28T05:14:09;98058.16;;;-0.71;82.96
42771;BME280;28426;42.872;25.314;2023-12-28T05:16:40;98056.53;;;-0.73;84.05
42771;BME280;28426;42.872;25.314;2023-12-28T05:19:11;98046.22;;;-0.76;84.09
42771;BME280;28426;42.872;25.314;2023-12-28T05:21:43;98046.31;;;-0.78;84.54
42771;BME280;28426;42.872;25.314;2023-12-28T05:24:15;98036.84;;;-0.81;84.50
42771;BME280;28426;42.872;25.314;2023-12-28T05:26:47;98043.13;;;-0.83;85.08
42771;BME280;28426;42.872;25.314;2023-12-28T05:29:21;98045.00;;;-0.85;84.91
42771;BME280;28426;42.872;25.314;2023-12-28T05:31:55;98049.47;;;-0.87;85.15
42771;BME280;28426;42.872;25.314;2023-12-28T05:34:29;98051.28;;;-0.88;85.10
42771;BME280;28426;42.872;25.314;2023-12-28T05:37:00;98053.78;;;-0.86;85.05
42771;BME280;28426;42.872;25.314;2023-12-28T05:39:32;98051.28;;;-0.88;85.11
42771;BME280;28426;42.872;25.314;2023-12-28T05:42:05;98048.53;;;-0.86;85.18
42771;BME280;28426;42.872;25.314;2023-12-28T05:44:42;98045.00;;;-0.85;84.91
42771;BME280;28426;42.872;25.314;2023-12-28T05:47:16;98039.84;;;-0.87;84.81
42771;BME280;28426;42.872;25.314;2023-12-28T05:49:50;98037.88;;;-0.83;85.22
42771;BME280;28426;42.872;25.314;2023-12-28T05:52:23;98034.31;;;-0.82;85.21
42771;BME280;28426;42.872;25.314;2023-12-28T05:55:01;98029.09;;;-0.82;85.57
42771;BME280;28426;42.872;25.314;2023-12-28T05:57:36;98035.25;;;-0.83;85.79
42771;BME280;28426;42.872;25.314;2023-12-28T06:00:17;98042.19;;;-0.82;85.65
42771;BME280;28426;42.872;25.314;2023-12-28T06:02:51;98035.34;;;-0.85;86.00
42771;BME280;28426;42.872;25.314;2023-12-28T06:05:27;98038.25;;;-0.89;85.90
42771;BME280;28426;42.872;25.314;2023-12-28T06:08:02;98043.41;;;-0.88;85.47
42771;BME280;28426;42.872;25.314;2023-12-28T06:10:36;98046.03;;;-0.88;85.37
42771;BME280;28426;42.872;25.314;2023-12-28T06:13:07;98039.94;;;-0.88;85.11
42771;BME280;28426;42.872;25.314;2023-12-28T06:15:42;98039.94;;;-0.88;85.26
42771;BME280;28426;42.872;25.314;2023-12-28T06:18:18;98036.38;;;-0.87;85.24
42771;BME280;28426;42.872;25.314;2023-12-28T06:20:55;98032.81;;;-0.86;85.08
42771;BME280;28426;42.872;25.314;2023-12-28T06:23:30;98042.28;;;-0.84;85.17
42771;BME280;28426;42.872;25.314;2023-12-28T06:26:07;98042.97;;;-0.80;85.34
42771;BME280;28426;42.872;25.314;2023-12-28T06:28:44;98035.84;;;-0.78;85.42
42771;BME280;28426;42.872;25.314;2023-12-28T06:31:25;98038.28;;;-0.75;84.96
42771;BME280;28426;42.872;25.314;2023-12-28T06:34:00;98055.53;;;-0.71;84.99
42771;BME280;28426;42.872;25.314;2023-12-28T06:36:36;98042.25;;;-0.68;85.05
42771;BME280;28426;42.872;25.314;2023-12-28T06:39:14;98036.78;;;-0.64;84.77
42771;BME280;28426;42.872;25.314;2023-12-28T06:41:50;98038.47;;;-0.63;84.82
42771;BME280;28426;42.872;25.314;2023-12-28T06:44:23;98045.22;;;-0.59;84.51
42771;BME280;28426;42.872;25.314;2023-12-28T06:47:00;98044.19;;;-0.57;84.35
42771;BME280;28426;42.872;25.314;2023-12-28T06:49:36;98049.34;;;-0.55;83.98
42771;BME280;28426;42.872;25.314;2023-12-28T06:52:13;98041.31;;;-0.52;84.15
42771;BME280;28426;42.872;25.314;2023-12-28T06:54:46;98044.50;;;-0.47;84.55
42771;BME280;28426;42.872;25.314;2023-12-28T06:57:20;98043.13;;;-0.38;85.07
42771;BME280;28426;42.872;25.314;2023-12-28T06:59:55;98044.34;;;-0.29;85.28
42771;BME280;28426;42.872;25.314;2023-12-28T07:02:38;98047.03;;;-0.16;85.10
42771;BME280;28426;42.872;25.314;2023-12-28T07:05:10;98044.53;;;-0.03;84.79
42771;BME280;28426;42.872;25.314;2023-12-28T07:07:43;98038.63;;;0.08;84.67
42771;BME280;28426;42.872;25.314;2023-12-28T07:10:19;98037.00;;;0.20;84.14
42771;BME280;28426;42.872;25.314;2023-12-28T07:12:54;98034.44;;;0.33;83.91
42771;BME280;28426;42.872;25.314;2023-12-28T07:15:30;98038.81;;;0.47;83.76
42771;BME280;28426;42.872;25.314;2023-12-28T07:18:08;98024.06;;;0.59;83.31
42771;BME280;28426;42.872;25.314;2023-12-28T07:20:43;98026.53;;;0.75;82.85
42771;BME280;28426;42.872;25.314;2023-12-28T07:23:18;98019.44;;;0.90;82.75
42771;BME280;28426;42.872;25.314;2023-12-28T07:25:52;98018.41;;;1.06;82.71
42771;BME280;28426;42.872;25.314;2023-12-28T07:28:30;98012.13;;;1.21;82.45
42771;BME280;28426;42.872;25.314;2023-12-28T07:31:07;98011.94;;;1.37;82.05
42771;BME280;28426;42.872;25.314;2023-12-28T07:33:50;98012.59;;;1.54;81.91
42771;BME280;28426;42.872;25.314;2023-12-28T07:36:24;98007.94;;;1.70;82.06
42771;BME280;28426;42.872;25.314;2023-12-28T07:38:57;98016.44;;;1.87;81.39
42771;BME280;28426;42.872;25.314;2023-12-28T07:41:33;98003.16;;;2.02;80.24
42771;BME280;28426;42.872;25.314;2023-12-28T07:44:06;98003.75;;;2.18;79.96
42771;BME280;28426;42.872;25.314;2023-12-28T07:46:39;98008.44;;;2.39;80.38
42771;BME280;28426;42.872;25.314;2023-12-28T07:49:15;98012.13;;;2.61;80.31
42771;BME280;28426;42.872;25.314;2023-12-28T07:51:50;98010.56;;;2.83;78.60
42771;BME280;28426;42.872;25.314;2023-12-28T07:54:26;98016.16;;;3.03;78.49
42771;BME280;28426;42.872;25.314;2023-12-28T07:57:00;98010.44;;;3.20;77.73
42771;BME280;28426;42.872;25.314;2023-12-28T07:59:36;98011.72;;;3.39;77.49
42771;BME280;28426;42.872;25.314;2023-12-28T08:02:12;98013.63;;;3.60;77.95
42771;BME280;28426;42.872;25.314;2023-12-28T08:04:50;98009.34;;;3.82;77.15
42771;BME280;28426;42.872;25.314;2023-12-28T08:07:23;98002.63;;;4.00;76.47
42771;BME280;28426;42.872;25.314;2023-12-28T08:10:02;98001.78;;;4.23;76.11
42771;BME280;28426;42.872;25.314;2023-12-28T08:12:38;98000.28;;;4.41;75.54
42771;BME280;28426;42.872;25.314;2023-12-28T08:15:14;98003.22;;;4.60;74.55
42771;BME280;28426;42.872;25.314;2023-12-28T08:17:50;98002.00;;;4.75;74.45
42771;BME280;28426;42.872;25.314;2023-12-28T08:20:30;97997.94;;;4.92;74.45
42771;BME280;28426;42.872;25.314;2023-12-28T08:23:05;97992.97;;;5.10;73.51
42771;BME280;28426;42.872;25.314;2023-12-28T08:25:47;97991.41;;;5.29;73.66
42771;BME280;28426;42.872;25.314;2023-12-28T08:28:23;97992.38;;;5.49;73.75
42771;BME280;28426;42.872;25.314;2023-12-28T08:30:57;97980.19;;;5.68;72.31
42771;BME280;28426;42.872;25.314;2023-12-28T08:33:29;97976.94;;;5.86;72.38
42771;BME280;28426;42.872;25.314;2023-12-28T08:36:07;97978.13;;;6.03;71.45
42771;BME280;28426;42.872;25.314;2023-12-28T08:38:40;97982.09;;;6.19;71.20
42771;BME280;28426;42.872;25.314;2023-12-28T08:41:18;97975.56;;;6.33;70.59
42771;BME280;28426;42.872;25.314;2023-12-28T08:43:58;97979.63;;;6.47;69.77
42771;BME280;28426;42.872;25.314;2023-12-28T08:46:33;97972.25;;;6.60;69.97
42771;BME280;28426;42.872;25.314;2023-12-28T08:49:07;97970.19;;;6.74;68.54
42771;BME280;28426;42.872;25.314;2023-12-28T08:51:42;97969.06;;;6.86;68.31
42771;BME280;28426;42.872;25.314;2023-12-28T08:54:16;97967.09;;;6.98;68.78
42771;BME280;28426;42.872;25.314;2023-12-28T08:56:49;97966.81;;;7.11;68.69
42771;BME280;28426;42.872;25.314;2023-12-28T08:59:27;97957.00;;;7.22;67.83
42771;BME280;28426;42.872;25.314;2023-12-28T09:02:00;97955.47;;;7.29;66.37
42771;BME280;28426;42.872;25.314;2023-12-28T09:04:34;97953.22;;;7.34;66.36
42771;BME280;28426;42.872;25.314;2023-12-28T09:07:10;97946.34;;;7.41;65.81
42771;BME280;28426;42.872;25.314;2023-12-28T09:09:44;97947.59;;;7.47;65.52
42771;BME280;28426;42.872;25.314;2023-12-28T09:12:20;97945.22;;;7.54;65.69
42771;BME280;28426;42.872;25.314;2023-12-28T09:14:53;97927.69;;;7.61;65.13
42771;BME280;28426;42.872;25.314;2023-12-28T09:17:27;97929.47;;;7.70;64.83
42771;BME280;28426;42.872;25.314;2023-12-28T09:20:04;97923.13;;;7.81;64.62
42771;BME280;28426;42.872;25.314;2023-12-28T09:22:41;97924.91;;;7.91;64.47
42771;BME280;28426;42.872;25.314;2023-12-28T09:25:16;97924.88;;;8.01;64.19
42771;BME280;28426;42.872;25.314;2023-12-28T09:27:51;97925.63;;;8.11;64.46
42771;BME280;28426;42.872;25.314;2023-12-28T09:30:26;97923.91;;;8.20;64.47
42771;BME280;28426;42.872;25.314;2023-12-28T09:33:01;97924.97;;;8.27;63.73
42771;BME280;28426;42.872;25.314;2023-12-28T09:35:34;97912.91;;;8.33;63.50
42771;BME280;28426;42.872;25.314;2023-12-28T09:38:16;97914.13;;;8.38;63.05
42771;BME280;28426;42.872;25.314;2023-12-28T09:40:53;97906.38;;;8.45;63.08
42771;BME280;28426;42.872;25.314;2023-12-28T09:43:33;97897.13;;;8.49;62.53
42771;BME280;28426;42.872;25.314;2023-12-28T09:46:08;97894.88;;;8.55;62.48
42771;BME280;28426;42.872;25.314;2023-12-28T09:48:45;97894.38;;;8.59;62.59
42771;BME280;28426;42.872;25.314;2023-12-28T09:51:21;97887.78;;;8.63;60.88
42771;BME280;28426;42.872;25.314;2023-12-28T09:53:58;97883.53;;;8.71;61.92
42771;BME280;28426;42.872;25.314;2023-12-28T09:56:33;97884.75;;;8.76;62.39
42771;BME280;28426;42.872;25.314;2023-12-28T09:59:07;97878.13;;;8.81;62.23
42771;BME280;28426;42.872;25.314;2023-12-28T10:01:46;97875.84;;;8.86;62.23
42771;BME280;28426;42.872;25.314;2023-12-28T10:04:22;97878.84;;;8.91;61.78
42771;BME280;28426;42.872;25.314;2023-12-28T10:07:00;97876.56;;;8.96;60.98
42771;BME280;28426;42.872;25.314;2023-12-28T10:09:39;97871.59;;;9.01;60.25
42771;BME280;28426;42.872;25.314;2023-12-28T10:12:15;97864.66;;;9.09;60.77
42771;BME280;28426;42.872;25.314;2023-12-28T10:14:53;97855.22;;;9.14;60.75
42771;BME280;28426;42.872;25.314;2023-12-28T10:17:33;97857.09;;;9.22;61.10
42771;BME280;28426;42.872;25.314;2023-12-28T10:20:09;97846.50;;;9.31;61.02
42771;BME280;28426;42.872;25.314;2023-12-28T10:22:44;97835.69;;;9.40;60.09
42771;BME280;28426;42.872;25.314;2023-12-28T10:25:24;97828.59;;;9.49;58.38
42771;BME280;28426;42.872;25.314;2023-12-28T10:28:04;97820.28;;;9.61;58.80
42771;BME280;28426;42.872;25.314;2023-12-28T10:30:38;97821.38;;;9.76;59.13
42771;BME280;28426;42.872;25.314;2023-12-28T10:33:14;97810.06;;;9.91;59.10
42771;BME280;28426;42.872;25.314;2023-12-28T10:35:57;97807.28;;;10.09;58.45
42771;BME280;28426;42.872;25.314;2023-12-28T10:38:36;97785.44;;;10.22;57.65
42771;BME280;28426;42.872;25.314;2023-12-28T10:41:15;97793.16;;;10.50;57.33
42771;BME280;28426;42.872;25.314;2023-12-28T10:43:59;97792.28;;;10.75;57.07
42771;BME280;28426;42.872;25.314;2023-12-28T10:46:40;97780.91;;;10.97;56.43
42771;BME280;28426;42.872;25.314;2023-12-28T10:49:17;97774.00;;;11.20;55.33
42771;BME280;28426;42.872;25.314;2023-12-28T10:51:56;97767.22;;;11.41;55.40
42771;BME280;28426;42.872;25.314;2023-12-28T10:54:37;97763.13;;;11.61;54.79
42771;BME280;28426;42.872;25.314;2023-12-28T10:57:26;97755.31;;;11.83;54.02
42771;BME280;28426;42.872;25.314;2023-12-28T11:00:09;97748.47;;;12.04;53.91
42771;BME280;28426;42.872;25.314;2023-12-28T11:02:47;97740.00;;;12.24;53.88
42771;BME280;28426;42.872;25.314;2023-12-28T11:05:23;97738.84;;;12.41;53.62
42771;BME280;28426;42.872;25.314;2023-12-28T11:07:59;97733.16;;;12.60;53.75
42771;BME280;28426;42.872;25.314;2023-12-28T11:10:40;97729.28;;;12.77;53.28
42771;BME280;28426;42.872;25.314;2023-12-28T11:13:20;97724.97;;;12.91;52.08
42771;BME280;28426;42.872;25.314;2023-12-28T11:15:58;97724.97;;;13.06;52.31
42771;BME280;28426;42.872;25.314;2023-12-28T11:18:33;97721.63;;;13.19;52.32
42771;BME280;28426;42.872;25.314;2023-12-28T11:21:09;97722.16;;;13.30;51.77
42771;BME280;28426;42.872;25.314;2023-12-28T11:23:44;97719.19;;;13.40;49.50
42771;BME280;28426;42.872;25.314;2023-12-28T11:26:21;97718.28;;;13.47;51.35
42771;BME280;28426;42.872;25.314;2023-12-28T11:29:05;97711.16;;;13.55;50.32
42771;BME280;28426;42.872;25.314;2023-12-28T11:31:41;97694.09;;;13.63;50.40
42771;BME280;28426;42.872;25.314;2023-12-28T11:34:17;97687.16;;;13.68;50.37
42771;BME280;28426;42.872;25.314;2023-12-28T11:36:54;97695.28;;;13.75;49.71
42771;BME280;28426;42.872;25.314;2023-12-28T11:39:31;97685.63;;;13.81;49.73
42771;BME280;28426;42.872;25.314;2023-12-28T11:42:07;97679.50;;;13.87;49.56
42771;BME280;28426;42.872;25.314;2023-12-28T11:44:44;97688.63;;;13.93;49.46
42771;BME280;28426;42.872;25.314;2023-12-28T11:47:25;97673.81;;;13.97;49.54
42771;BME280;28426;42.872;25.314;2023-12-28T11:50:07;97675.91;;;14.02;48.60
42771;BME280;28426;42.872;25.314;2023-12-28T11:52:41;97671.81;;;14.06;48.49
42771;BME280;28426;42.872;25.314;2023-12-28T11:55:22;97669.56;;;14.09;48.04
42771;BME280;28426;42.872;25.314;2023-12-28T11:57:59;97668.16;;;14.13;47.90
42771;BME280;28426;42.872;25.314;2023-12-28T12:00:37;97666.13;;;14.16;47.80
42771;BME280;28426;42.872;25.314;2023-12-28T12:03:15;97666.75;;;14.18;47.52
42771;BME280;28426;42.872;25.314;2023-12-28T12:05:52;97669.88;;;14.21;47.24
42771;BME280;28426;42.872;25.314;2023-12-28T12:08:27;97662.47;;;14.23;46.21
42771;BME280;28426;42.872;25.314;2023-12-28T12:11:06;97656.25;;;14.23;45.76
42771;BME280;28426;42.872;25.314;2023-12-28T12:13:42;97670.75;;;14.29;45.12
42771;BME280;28426;42.872;25.314;2023-12-28T12:16:20;97664.16;;;14.31;44.69
42771;BME280;28426;42.872;25.314;2023-12-28T12:18:55;97657.56;;;14.34;45.01
42771;BME280;28426;42.872;25.314;2023-12-28T12:21:31;97659.03;;;14.36;44.63
42771;BME280;28426;42.872;25.314;2023-12-28T12:24:10;97657.00;;;14.38;44.45
42771;BME280;28426;42.872;25.314;2023-12-28T12:26:48;97656.63;;;14.42;44.83
42771;BME280;28426;42.872;25.314;2023-12-28T12:29:26;97656.38;;;14.43;44.38
42771;BME280;28426;42.872;25.314;2023-12-28T12:32:04;97651.66;;;14.45;44.49
42771;BME280;28426;42.872;25.314;2023-12-28T12:34:38;97649.78;;;14.46;44.57
42771;BME280;28426;42.872;25.314;2023-12-28T12:37:15;97659.72;;;14.45;44.38
42771;BME280;28426;42.872;25.314;2023-12-28T12:39:53;97656.38;;;14.43;44.26
42771;BME280;28426;42.872;25.314;2023-12-28T12:42:28;97661.16;;;14.41;44.54
42771;BME280;28426;42.872;25.314;2023-12-28T12:45:04;97657.63;;;14.41;44.54
42771;BME280;28426;42.872;25.314;2023-12-28T12:47:41;97652.66;;;14.37;44.39
42771;BME280;28426;42.872;25.314;2023-12-28T12:50:19;97657.56;;;14.34;43.97
42771;BME280;28426;42.872;25.314;2023-12-28T12:52:55;97653.84;;;14.28;43.67
42771;BME280;28426;42.872;25.314;2023-12-28T12:55:31;97654.41;;;14.23;43.74
42771;BME280;28426;42.872;25.314;2023-12-28T12:58:07;97652.28;;;14.19;43.92
42771;BME280;28426;42.872;25.314;2023-12-28T13:00:45;97657.41;;;14.13;43.60
42771;BME280;28426;42.872;25.314;2023-12-28T13:03:27;97648.50;;;14.06;43.82
42771;BME280;28426;42.872;25.314;2023-12-28T13:06:03;97648.63;;;13.98;43.56
42771;BME280;28426;42.872;25.314;2023-12-28T13:08:37;97639.69;;;13.91;43.60
42771;BME280;28426;42.872;25.314;2023-12-28T13:11:13;97639.00;;;13.82;43.59
42771;BME280;28426;42.872;25.314;2023-12-28T13:13:53;97645.53;;;13.72;43.52
42771;BME280;28426;42.872;25.314;2023-12-28T13:16:29;97637.97;;;13.61;44.06
42771;BME280;28426;42.872;25.314;2023-12-28T13:19:09;97641.19;;;13.50;44.19
42771;BME280;28426;42.872;25.314;2023-12-28T13:21:45;97642.66;;;13.37;44.59
42771;BME280;28426;42.872;25.314;2023-12-28T13:24:20;97640.88;;;13.23;44.28
42771;BME280;28426;42.872;25.314;2023-12-28T13:26:54;97637.38;;;13.07;44.82
42771;BME280;28426;42.872;25.314;2023-12-28T13:29:28;97642.56;;;12.93;45.53
42771;BME280;28426;42.872;25.314;2023-12-28T13:32:02;97639.53;;;12.81;45.69
42771;BME280;28426;42.872;25.314;2023-12-28T13:34:39;97636.50;;;12.69;46.32